Stevensville, Maryland
Current Conditions -  °F | °C
As of 12:54 AM on Saturday 25 Oct 2014 (Local Time) from KNAK Reporting Station
Clear Clear  
Wind Chill: 54°   Ceiling: Unl
Heat Index: 54°   Visibility: 10mi
Dew Point: 37°   Wind: 6mph
Humidity: 53%   Direction: 290°WNW
Pressure: 29.93"   Gusts: NA
Location:  38.98°N, 76.31°W
Report Text: KNAK 250454Z AUTO 29005KT 10SM CLR 12/03 A2993 RMK AO2 SLP138 T01220028 402000122
Loading
Personal Weather Stations






























Interactive Weather Map New forecast layout! Learn more

10-Day Weather Forecast

Advertisements
Track Severe Weather on mobile